Time;durP1;ratioP1;P1;durP2;ratioP2;P2;SDS_P1;SDS_P2;PMS_P1;PMS_P2;Temp;Humidity;BMP_temperature;BMP_pressure;BME280_temperature;BME280_humidity;BME280_pressure;Samples;Min_cycle;Max_cycle;Signal;HPM_P1;HPM_P2
2022/10/22 00:01:09;;;;;;;21.47;19.13;;;;;;;9.50;100.00;96814.31;4997984;28;20234;-62
2022/10/22 00:03:37;;;;;;;20.10;18.30;;;;;;;9.50;100.00;96819.59;5012382;28;20497;-62
2022/10/22 00:06:05;;;;;;;20.70;18.70;;;;;;;9.52;100.00;96820.22;5011485;28;20480;-57
2022/10/22 00:08:34;;;;;;;18.97;17.17;;;;;;;9.53;100.00;96810.47;5014013;28;20875;-63
2022/10/22 00:11:08;;;;;;;20.63;18.67;;;;;;;9.51;100.00;96797.44;4999024;28;20944;-61
2022/10/22 00:13:38;;;;;;;20.23;17.50;;;;;;;9.49;100.00;96794.16;4958837;28;20218;-62
2022/10/22 00:16:07;;;;;;;20.20;18.30;;;;;;;9.57;100.00;96817.03;4998668;28;22584;-60
2022/10/22 00:18:35;;;;;;;20.47;18.67;;;;;;;9.56;100.00;96810.09;5011621;28;20479;-59
2022/10/22 00:21:04;;;;;;;21.30;19.13;;;;;;;9.58;100.00;96812.56;4982781;28;20211;-62
2022/10/22 00:23:32;;;;;;;20.83;18.50;;;;;;;9.59;100.00;96806.25;5014974;28;20206;-62
2022/10/22 00:26:01;;;;;;;20.07;18.03;;;;;;;9.62;100.00;96811.16;5010925;28;20241;-59
2022/10/22 00:28:29;;;;;;;19.37;17.43;;;;;;;9.64;100.00;96812.63;4966393;28;20210;-61
2022/10/22 00:31:00;;;;;;;19.63;17.83;;;;;;;9.69;100.00;96809.44;4985614;28;20237;-59
2022/10/22 00:33:29;;;;;;;19.87;17.93;;;;;;;9.73;100.00;96802.75;5012684;28;20229;-63
2022/10/22 00:35:57;;;;;;;19.90;18.03;;;;;;;9.73;100.00;96809.88;5008375;28;20250;-61
2022/10/22 00:38:25;;;;;;;20.60;18.57;;;;;;;9.73;100.00;96810.69;5010986;28;20202;-62
2022/10/22 00:40:54;;;;;;;18.17;16.57;;;;;;;9.75;100.00;96805.19;4984332;28;22043;-64
2022/10/22 00:43:22;;;;;;;20.23;18.33;;;;;;;9.75;100.00;96807.84;4965164;28;20246;-60
2022/10/22 00:45:50;;;;;;;18.57;16.93;;;;;;;9.74;100.00;96809.69;4982685;28;20899;-60
2022/10/22 00:48:23;;;;;;;20.23;16.33;;;;;;;9.77;100.00;96800.53;5013089;28;20214;-59
2022/10/22 00:50:55;;;;;;;17.70;15.93;;;;;;;9.74;100.00;96801.75;5008426;28;20752;-60
2022/10/22 00:53:27;;;;;;;18.47;16.73;;;;;;;9.75;100.00;96803.41;5015746;28;20752;-59
2022/10/22 00:55:55;;;;;;;19.00;17.20;;;;;;;9.71;100.00;96791.56;5009301;28;20226;-63
2022/10/22 00:58:27;;;;;;;18.07;16.30;;;;;;;9.67;100.00;96793.75;4968128;28;20785;-60
2022/10/22 01:00:56;;;;;;;19.50;17.60;;;;;;;9.66;100.00;96794.75;5008509;28;20638;-60
2022/10/22 01:03:26;;;;;;;21.03;18.43;;;;;;;9.70;100.00;96795.19;4986240;28;21525;-56
2022/10/22 01:05:58;;;;;;;19.30;17.33;;;;;;;9.66;100.00;96793.91;5010726;28;20277;-59
2022/10/22 01:08:31;;;;;;;18.40;16.63;;;;;;;9.71;100.00;96791.56;5012719;28;20350;-58
2022/10/22 01:11:08;;;;;;;17.33;15.73;;;;;;;9.74;100.00;96800.91;5009719;28;20941;-60
2022/10/22 01:13:45;;;;;;;19.10;17.43;;;;;;;9.69;100.00;96806.78;4965982;28;20211;-58
2022/10/22 01:16:18;;;;;;;20.23;18.20;;;;;;;9.74;100.00;96811.50;5012560;28;20488;-61
2022/10/22 01:18:55;;;;;;;20.23;18.13;;;;;;;9.76;100.00;96804.19;4956481;28;20828;-61
2022/10/22 01:21:28;;;;;;;19.77;17.77;;;;;;;9.79;100.00;96793.22;5010686;28;20221;-60
2022/10/22 01:24:26;;;;;;;20.93;19.00;;;;;;;9.83;100.00;96783.91;5014669;28;20210;-62
2022/10/22 01:27:00;;;;;;;23.13;18.07;;;;;;;9.76;100.00;96794.44;5015057;28;20353;-62
2022/10/22 01:29:33;;;;;;;20.47;18.53;;;;;;;9.73;100.00;96800.13;4963525;28;20206;-63
2022/10/22 01:32:03;;;;;;;19.03;17.30;;;;;;;9.74;100.00;96800.91;5009406;28;20210;-63
2022/10/22 01:34:32;;;;;;;20.97;18.53;;;;;;;9.72;100.00;96793.19;4972210;28;20683;-63
2022/10/22 01:37:00;;;;;;;20.93;18.87;;;;;;;9.83;100.00;96797.97;4998005;28;20235;-62
2022/10/22 01:39:30;;;;;;;20.37;18.47;;;;;;;9.80;100.00;96801.00;5010676;28;20226;-61
2022/10/22 01:42:00;;;;;;;20.23;18.33;;;;;;;9.79;100.00;96793.22;5011387;28;20203;-61
2022/10/22 01:44:30;;;;;;;21.70;17.40;;;;;;;9.79;100.00;96793.22;4960118;28;21013;-62
2022/10/22 01:47:08;;;;;;;21.07;19.07;;;;;;;9.75;100.00;96795.44;5007683;28;20710;-61
2022/10/22 01:49:46;;;;;;;21.20;19.10;;;;;;;9.77;100.00;96805.84;4976784;28;20348;-62
2022/10/22 01:52:23;;;;;;;20.30;18.40;;;;;;;9.80;100.00;96801.00;5011494;28;20225;-62
2022/10/22 01:54:56;;;;;;;22.10;18.00;;;;;;;9.87;100.00;96805.53;4980843;28;20221;-61
2022/10/22 01:57:32;;;;;;;20.33;18.43;;;;;;;9.85;100.00;96806.53;5009702;28;20218;-60
2022/10/22 02:00:04;;;;;;;22.27;20.07;;;;;;;9.78;100.00;96796.88;4963568;28;20218;-62
2022/10/22 02:02:38;;;;;;;21.60;19.30;;;;;;;9.82;100.00;96798.97;5010301;28;20206;-63
2022/10/22 02:05:09;;;;;;;20.67;18.77;;;;;;;9.73;100.00;96794.00;4959153;28;20963;-63
2022/10/22 02:07:42;;;;;;;20.77;18.80;;;;;;;9.70;100.00;96798.66;5013379;28;20266;-58
2022/10/22 02:10:11;;;;;;;20.53;18.63;;;;;;;9.74;100.00;96791.16;5016358;28;20229;-61
2022/10/22 02:12:40;;;;;;;21.97;19.57;;;;;;;9.80;100.00;96779.00;5013547;28;20831;-62
2022/10/22 02:15:11;;;;;;;20.70;18.77;;;;;;;9.76;100.00;96762.69;4953335;28;20253;-63
2022/10/22 02:17:40;;;;;;;22.47;20.27;;;;;;;9.79;100.00;96767.59;5011690;28;20234;-60
2022/10/22 02:20:11;;;;;;;20.43;18.63;;;;;;;9.81;100.00;96762.94;5013319;28;20356;-62
2022/10/22 02:22:40;;;;;;;19.90;18.00;;;;;;;9.79;100.00;96758.84;4999258;28;20325;-62
2022/10/22 02:25:09;;;;;;;19.57;17.70;;;;;;;9.76;100.00;96767.16;5016271;28;20207;-59
2022/10/22 02:27:41;;;;;;;20.67;18.63;;;;;;;9.74;100.00;96772.66;5014882;28;20643;-62
2022/10/22 02:30:14;;;;;;;20.20;18.10;;;;;;;9.70;100.00;96771.41;4961429;28;20361;-62
2022/10/22 02:32:45;;;;;;;20.77;18.83;;;;;;;9.67;100.00;96771.78;5010456;28;20535;-63
2022/10/22 02:35:18;;;;;;;20.67;18.53;;;;;;;9.70;100.00;96784.63;5006099;28;20215;-62
2022/10/22 02:37:47;;;;;;;20.20;18.03;;;;;;;9.74;100.00;96777.94;5004712;28;20238;-62
2022/10/22 02:40:15;;;;;;;21.73;18.60;;;;;;;9.71;100.00;96786.25;5015430;28;20214;-60
2022/10/22 02:42:44;;;;;;;22.77;20.30;;;;;;;9.69;100.00;96802.31;5012585;28;20403;-62
2022/10/22 02:45:14;;;;;;;21.93;19.60;;;;;;;9.69;100.00;96818.19;4999917;28;20214;-62
2022/10/22 02:47:42;;;;;;;20.80;18.67;;;;;;;9.72;100.00;96819.66;4990623;28;20822;-60
2022/10/22 02:50:10;;;;;;;21.87;19.67;;;;;;;9.75;100.00;96816.63;5015942;28;20194;-61
2022/10/22 02:52:38;;;;;;;21.27;19.23;;;;;;;9.75;100.00;96823.72;4983415;28;20317;-63
2022/10/22 02:55:07;;;;;;;21.40;19.30;;;;;;;9.73;100.00;96831.03;5016013;28;20230;-61
2022/10/22 02:57:36;;;;;;;23.47;19.97;;;;;;;9.73;100.00;96826.56;5016021;28;20552;-59
2022/10/22 03:00:05;;;;;;;22.00;19.80;;;;;;;9.76;100.00;96835.94;5014573;28;20217;-62
2022/10/22 03:02:35;;;;;;;21.77;19.80;;;;;;;9.75;100.00;96829.84;4966265;28;20212;-60
2022/10/22 03:05:03;;;;;;;23.40;21.03;;;;;;;9.75;100.00;96829.00;5014172;28;20444;-61
2022/10/22 03:07:31;;;;;;;23.00;20.70;;;;;;;9.70;100.00;96826.94;4980929;28;20945;-61
2022/10/22 03:09:59;;;;;;;23.50;21.20;;;;;;;9.77;100.00;96819.91;5013515;28;20218;-60
2022/10/22 03:12:27;;;;;;;26.07;20.40;;;;;;;9.77;100.00;96811.97;5010314;28;20211;-62
2022/10/22 03:14:56;;;;;;;23.17;20.73;;;;;;;9.76;100.00;96802.38;5013877;28;20565;-58
2022/10/22 03:17:24;;;;;;;21.03;19.10;;;;;;;9.79;100.00;96799.38;4934672;28;20227;-61
2022/10/22 03:19:53;;;;;;;21.53;19.47;;;;;;;9.79;100.00;96799.38;5014281;28;20942;-62
2022/10/22 03:22:25;;;;;;;22.07;19.60;;;;;;;9.83;100.00;96794.50;4991511;28;20476;-54
2022/10/22 03:24:56;;;;;;;22.37;20.07;;;;;;;9.85;100.00;96795.16;5009490;28;20214;-50
2022/10/22 03:27:25;;;;;;;21.77;19.53;;;;;;;9.88;100.00;96807.16;4984630;28;20460;-56
2022/10/22 03:29:55;;;;;;;21.77;19.20;;;;;;;9.92;100.00;96803.97;5015293;28;20206;-56
2022/10/22 03:32:23;;;;;;;22.90;20.60;;;;;;;9.98;100.00;96805.03;4953171;28;20478;-58
2022/10/22 03:34:53;;;;;;;23.30;20.50;;;;;;;9.98;100.00;96808.50;4981380;28;20207;-56
2022/10/22 03:37:22;;;;;;;23.70;20.20;;;;;;;10.00;100.00;96800.34;4977302;28;20739;-54
2022/10/22 03:39:50;;;;;;;23.07;20.87;;;;;;;10.01;100.00;96811.78;4984408;28;20210;-56
2022/10/22 03:42:18;;;;;;;23.70;21.20;;;;;;;9.99;100.00;96804.84;5001654;28;20489;-57
2022/10/22 03:44:46;;;;;;;22.20;20.20;;;;;;;10.02;100.00;96792.25;4981758;28;20413;-59
2022/10/22 03:47:14;;;;;;;23.07;20.70;;;;;;;9.99;100.00;96772.25;5008593;28;20235;-62
2022/10/22 03:49:42;;;;;;;22.77;20.60;;;;;;;10.03;100.00;96770.06;4965875;28;20389;-59
2022/10/22 03:52:14;;;;;;;21.97;19.90;;;;;;;9.94;100.00;96806.41;5009339;28;20854;-63
2022/10/22 03:54:42;;;;;;;24.93;22.47;;;;;;;9.91;100.00;96807.63;4984529;28;20870;-61
2022/10/22 03:57:11;;;;;;;24.30;21.90;;;;;;;9.88;100.00;96808.00;5011053;28;20390;-60
2022/10/22 03:59:41;;;;;;;24.30;21.33;;;;;;;9.89;100.00;96820.22;5010616;28;20849;-61
2022/10/22 04:02:10;;;;;;;24.57;21.23;;;;;;;9.93;100.00;96844.47;5013905;28;20581;-61
2022/10/22 04:04:38;;;;;;;25.43;22.83;;;;;;;9.93;100.00;96863.00;4965753;28;20836;-62
2022/10/22 04:07:07;;;;;;;26.47;22.43;;;;;;;9.96;100.00;96865.25;5011740;28;20233;-62
2022/10/22 04:09:37;;;;;;;25.30;22.63;;;;;;;9.96;100.00;96852.88;5009249;28;20434;-60
2022/10/22 04:12:07;;;;;;;23.30;21.03;;;;;;;10.06;100.00;96865.78;4980568;28;20745;-58
2022/10/22 04:14:35;;;;;;;24.43;21.43;;;;;;;10.08;100.00;96857.66;5008609;28;20313;-61
2022/10/22 04:17:03;;;;;;;24.07;21.70;;;;;;;10.13;100.00;96866.69;4959376;28;20562;-58
2022/10/22 04:19:31;;;;;;;24.73;21.53;;;;;;;10.15;100.00;96861.16;5008395;28;20203;-61
2022/10/22 04:22:00;;;;;;;23.63;21.17;;;;;;;10.13;100.00;96856.09;4966447;28;20211;-61
2022/10/22 04:24:30;;;;;;;23.70;21.17;;;;;;;10.08;100.00;96861.13;5009191;28;20985;-59
2022/10/22 04:26:59;;;;;;;22.30;19.97;;;;;;;10.17;100.00;96850.41;4984204;28;20234;-60
2022/10/22 04:29:28;;;;;;;25.03;21.07;;;;;;;10.17;100.00;96840.63;5001219;28;20555;-60
2022/10/22 04:31:56;;;;;;;24.43;22.13;;;;;;;10.16;100.00;96862.00;5005822;28;20304;-60
2022/10/22 04:34:27;;;;;;;22.87;20.60;;;;;;;10.13;100.00;96864.03;4988642;28;20427;-57
2022/10/22 04:36:55;;;;;;;24.17;21.67;;;;;;;10.12;100.00;96866.84;4966706;28;20234;-61
2022/10/22 04:39:23;;;;;;;24.23;21.67;;;;;;;10.18;100.00;96860.78;5009027;28;20434;-62
2022/10/22 04:41:51;;;;;;;24.50;21.03;;;;;;;10.19;100.00;96866.91;4985833;28;20207;-61
2022/10/22 04:44:21;;;;;;;24.63;22.07;;;;;;;10.24;100.00;96843.34;5008573;28;20245;-62
2022/10/22 04:46:49;;;;;;;24.00;21.57;;;;;;;10.26;100.00;96859.84;5013823;28;20533;-64
2022/10/22 04:49:18;;;;;;;22.50;20.13;;;;;;;10.25;100.00;96852.91;5014061;28;20310;-62
2022/10/22 04:51:46;;;;;;;23.57;21.07;;;;;;;10.28;100.00;96869.25;4968171;28;20207;-61
2022/10/22 04:54:15;;;;;;;23.77;21.37;;;;;;;10.33;100.00;96862.56;5008906;28;20207;-56
2022/10/22 04:56:43;;;;;;;23.70;21.40;;;;;;;10.32;100.00;96868.88;4983132;28;21849;-59
2022/10/22 04:59:12;;;;;;;23.63;21.23;;;;;;;10.37;100.00;96869.94;5007568;28;20291;-61
2022/10/22 05:01:43;;;;;;;22.20;19.30;;;;;;;10.34;100.00;96869.50;5009814;28;21001;-61
2022/10/22 05:04:13;;;;;;;22.40;20.27;;;;;;;10.33;100.00;96878.47;5013687;28;20967;-62
2022/10/22 05:06:41;;;;;;;22.23;19.97;;;;;;;10.35;100.00;96887.03;4967061;28;20493;-62
2022/10/22 05:09:13;;;;;;;21.80;19.70;;;;;;;10.34;100.00;96894.13;5013996;28;20223;-61
2022/10/22 05:11:45;;;;;;;22.50;20.27;;;;;;;10.38;100.00;96906.00;4990098;28;21025;-61
2022/10/22 05:14:13;;;;;;;21.93;19.93;;;;;;;10.31;100.00;96897.16;5014087;28;20214;-62
2022/10/22 05:16:44;;;;;;;22.77;20.67;;;;;;;10.36;100.00;96912.50;5013117;28;20222;-60
2022/10/22 05:19:17;;;;;;;19.87;17.97;;;;;;;10.40;100.00;96911.94;4994351;28;20210;-61
2022/10/22 05:21:45;;;;;;;20.23;18.43;;;;;;;10.34;100.00;96917.97;5014050;28;20199;-62
2022/10/22 05:24:13;;;;;;;19.03;17.13;;;;;;;10.33;100.00;96913.69;4975156;28;20226;-62
2022/10/22 05:26:42;;;;;;;18.10;16.40;;;;;;;10.31;100.00;96913.06;5010835;28;20226;-61
2022/10/22 05:29:10;;;;;;;19.20;17.50;;;;;;;10.35;100.00;96922.25;4987791;28;20846;-61
2022/10/22 05:31:38;;;;;;;17.73;16.13;;;;;;;10.38;100.00;96932.47;5013955;28;20213;-61
2022/10/22 05:34:08;;;;;;;19.70;17.70;;;;;;;10.31;100.00;96928.94;5015483;28;20203;-62
2022/10/22 05:36:36;;;;;;;20.93;18.97;;;;;;;10.22;100.00;96925.59;5017441;28;20222;-62
2022/10/22 05:39:05;;;;;;;19.97;17.97;;;;;;;10.25;100.00;96946.44;4981380;28;20211;-62
2022/10/22 05:41:35;;;;;;;19.60;17.70;;;;;;;10.29;100.00;96952.16;5011064;28;20428;-62
2022/10/22 05:44:04;;;;;;;21.40;19.43;;;;;;;10.32;100.00;96957.06;4986893;28;20430;-61
2022/10/22 05:46:34;;;;;;;22.47;20.37;;;;;;;10.37;100.00;96949.38;4973275;28;20223;-60
2022/10/22 05:49:04;;;;;;;21.50;19.33;;;;;;;10.35;100.00;96945.28;5018192;28;20230;-61
2022/10/22 05:51:37;;;;;;;23.30;20.80;;;;;;;10.28;100.00;96956.63;5016755;28;20273;-66
2022/10/22 05:54:07;;;;;;;22.00;19.83;;;;;;;10.33;100.00;96955.25;4981879;28;22529;-63
2022/10/22 05:56:35;;;;;;;23.17;21.00;;;;;;;10.32;100.00;96956.25;5015811;28;20930;-60
2022/10/22 05:59:03;;;;;;;22.57;20.13;;;;;;;10.30;100.00;96959.09;4992782;28;20257;-60
2022/10/22 06:01:34;;;;;;;21.73;19.63;;;;;;;10.37;100.00;96949.38;5014750;28;20202;-60
2022/10/22 06:04:04;;;;;;;21.67;19.50;;;;;;;10.37;100.00;96943.28;5018193;28;20206;-64
2022/10/22 06:06:35;;;;;;;21.60;19.50;;;;;;;10.42;100.00;96936.44;5015974;28;20227;-62
2022/10/22 06:09:06;;;;;;;22.73;20.50;;;;;;;10.46;100.00;96938.72;4979878;28;20245;-61
2022/10/22 06:11:34;;;;;;;24.40;21.90;;;;;;;10.32;100.00;96943.81;5016257;28;20200;-61
2022/10/22 06:14:02;;;;;;;22.67;20.50;;;;;;;10.30;100.00;96956.44;4993753;28;20211;-59
2022/10/22 06:16:31;;;;;;;23.80;21.27;;;;;;;10.31;100.00;96958.06;5013038;28;20909;-60
2022/10/22 06:19:00;;;;;;;22.03;19.87;;;;;;;10.33;100.00;96963.19;5020422;28;20868;-60
2022/10/22 06:21:29;;;;;;;21.03;18.93;;;;;;;10.35;100.00;96961.97;5013665;28;21193;-60
2022/10/22 06:24:00;;;;;;;21.20;19.03;;;;;;;10.37;100.00;96967.91;5018193;28;20212;-59
2022/10/22 06:26:29;;;;;;;22.00;19.80;;;;;;;10.42;100.00;96968.22;4965953;28;20230;-62
2022/10/22 06:28:57;;;;;;;20.67;18.77;;;;;;;10.50;100.00;96977.06;5013431;28;20378;-60
2022/10/22 06:31:26;;;;;;;19.57;17.67;;;;;;;10.59;100.00;96973.25;4981662;28;20208;-58
2022/10/22 06:33:55;;;;;;;20.73;18.77;;;;;;;10.52;100.00;96970.53;4997784;28;20289;-58
2022/10/22 06:36:24;;;;;;;18.80;17.00;;;;;;;10.52;100.00;96959.94;5012451;28;20227;-62
2022/10/22 06:38:53;;;;;;;20.13;18.10;;;;;;;10.55;100.00;96956.13;5015212;28;20199;-61
2022/10/22 06:41:23;;;;;;;17.73;16.13;;;;;;;10.59;100.00;96957.38;4978587;28;20574;-62
2022/10/22 06:43:56;;;;;;;17.70;16.17;;;;;;;10.59;100.00;96954.72;4989548;28;20210;-60
2022/10/22 06:46:26;;;;;;;19.20;17.47;;;;;;;10.64;100.00;96972.72;4983262;28;20269;-61
2022/10/22 06:48:56;;;;;;;19.07;17.37;;;;;;;10.73;100.00;96981.31;5012924;28;20223;-63
2022/10/22 06:51:25;;;;;;;18.17;16.47;;;;;;;10.77;100.00;96979.94;5012689;28;20210;-60
2022/10/22 06:53:53;;;;;;;19.90;18.00;;;;;;;10.79;100.00;96985.88;5015901;28;20234;-60
2022/10/22 06:56:25;;;;;;;19.37;17.67;;;;;;;10.82;100.00;96991.63;4951262;28;22087;-60
2022/10/22 06:58:55;;;;;;;18.10;16.50;;;;;;;10.89;100.00;97002.28;5007830;28;20199;-61
2022/10/22 07:01:26;;;;;;;18.23;16.63;;;;;;;10.85;100.00;96998.38;4992773;28;20198;-63
2022/10/22 07:03:54;;;;;;;20.83;18.93;;;;;;;10.95;100.00;97012.13;5015815;28;20199;-63
2022/10/22 07:06:24;;;;;;;16.10;14.60;;;;;;;10.96;100.00;97013.75;5013140;28;20832;-63
2022/10/22 07:08:53;;;;;;;17.70;16.00;;;;;;;10.91;100.00;97023.28;5010417;28;20206;-63
2022/10/22 07:11:25;;;;;;;16.37;14.87;;;;;;;10.91;100.00;97024.13;4966635;28;20629;-64
2022/10/22 07:13:54;;;;;;;16.50;15.20;;;;;;;10.90;100.00;97033.09;5012217;28;20207;-63
2022/10/22 07:16:22;;;;;;;17.77;16.07;;;;;;;10.92;100.00;97035.53;4988702;28;21801;-61
2022/10/22 07:18:59;;;;;;;18.67;16.87;;;;;;;10.86;100.00;97037.13;5012522;28;20416;-63
2022/10/22 07:21:27;;;;;;;17.23;15.43;;;;;;;10.98;100.00;97043.56;5007471;28;20785;-64
2022/10/22 07:23:55;;;;;;;17.73;16.17;;;;;;;11.11;100.00;97049.97;5006930;28;20215;-62
2022/10/22 07:26:27;;;;;;;17.90;16.07;;;;;;;11.23;100.00;97056.41;5014133;28;20226;-62
2022/10/22 07:28:55;;;;;;;17.40;15.93;;;;;;;11.36;100.00;97068.16;4961406;28;20926;-63
2022/10/22 07:31:23;;;;;;;17.80;15.97;;;;;;;11.42;100.00;97076.16;5015816;28;20497;-61
2022/10/22 07:33:51;;;;;;;16.77;15.23;;;;;;;11.46;100.00;97068.63;4982449;28;20381;-63
2022/10/22 07:36:19;;;;;;;18.03;16.13;;;;;;;11.47;100.00;97069.47;5015909;28;20409;-63
2022/10/22 07:38:49;;;;;;;15.80;14.30;;;;;;;11.37;100.00;97075.94;4965187;28;20234;-63
2022/10/22 07:41:17;;;;;;;18.57;16.77;;;;;;;11.35;100.00;97085.88;4999867;28;21384;-62
2022/10/22 07:43:47;;;;;;;18.60;17.00;;;;;;;11.33;100.00;97085.25;4978663;28;20233;-64
2022/10/22 07:46:15;;;;;;;18.63;16.87;;;;;;;11.33;100.00;97093.22;5013166;28;21060;-64
2022/10/22 07:48:43;;;;;;;17.40;15.87;;;;;;;11.36;100.00;97094.66;4981271;28;20215;-64
2022/10/22 07:51:12;;;;;;;19.00;17.23;;;;;;;11.39;100.00;97094.28;4979150;28;20788;-62
2022/10/22 07:53:40;;;;;;;17.73;16.03;;;;;;;11.50;100.00;97101.72;5009110;28;20828;-61
2022/10/22 07:56:09;;;;;;;19.73;17.83;;;;;;;11.50;100.00;97092.94;5010230;28;20273;-61
2022/10/22 07:58:37;;;;;;;18.40;16.80;;;;;;;11.54;100.00;97113.59;4964954;28;20851;-61
2022/10/22 08:01:06;;;;;;;17.97;16.43;;;;;;;11.66;100.00;97108.56;5011532;28;20207;-64
2022/10/22 08:03:35;;;;;;;18.00;16.27;;;;;;;11.74;100.00;97107.63;4983280;28;20722;-62
2022/10/22 08:06:03;;;;;;;20.13;18.10;;;;;;;11.74;100.00;97097.00;4993706;28;20918;-62
2022/10/22 08:08:32;;;;;;;19.23;17.37;;;;;;;11.77;100.00;97098.47;5010642;28;20398;-64
2022/10/22 08:11:01;;;;;;;21.23;19.17;;;;;;;11.76;100.00;97094.16;5014921;28;20819;-62
2022/10/22 08:13:30;;;;;;;21.07;18.97;;;;;;;11.82;100.00;97086.22;5009213;28;20206;-64
2022/10/22 08:15:59;;;;;;;19.70;17.67;;;;;;;11.84;100.00;97100.13;4966060;28;20276;-63
2022/10/22 08:18:29;;;;;;;19.90;17.90;;;;;;;11.90;100.00;97100.38;4980291;28;21151;-62
2022/10/22 08:20:57;;;;;;;20.20;18.30;;;;;;;12.12;100.00;97101.97;5010684;28;20206;-62
2022/10/22 08:23:26;;;;;;;18.10;16.30;;;;;;;11.93;100.00;97105.28;4984616;28;20207;-63
2022/10/22 08:25:56;;;;;;;18.10;16.30;;;;;;;11.93;100.00;97115.91;5013763;28;21104;-64
2022/10/22 08:28:25;;;;;;;18.00;16.10;;;;;;;11.97;100.00;97120.63;5011509;28;20499;-62
2022/10/22 08:30:53;;;;;;;17.87;16.43;;;;;;;12.11;100.00;97118.09;4947065;28;20238;-63
2022/10/22 08:33:22;;;;;;;17.63;15.83;;;;;;;12.21;100.00;97110.59;5010581;28;20980;-62
2022/10/22 08:35:52;;;;;;;16.80;15.30;;;;;;;12.31;100.00;97110.22;4965128;28;20214;-65
2022/10/22 08:38:20;;;;;;;16.47;14.83;;;;;;;12.35;100.00;97119.47;5011980;28;20354;-64
2022/10/22 08:40:50;;;;;;;16.83;15.33;;;;;;;12.38;100.00;97121.72;5014914;28;20195;-63
2022/10/22 08:43:51;;;;;;;16.00;14.60;;;;;;;12.42;100.00;97114.16;5012294;28;20207;-61
2022/10/22 08:46:35;;;;;;;14.60;12.97;;;;;;;12.57;100.00;97129.97;4965839;28;20230;-63
2022/10/22 08:49:05;;;;;;;14.23;12.93;;;;;;;12.63;100.00;97123.88;4996439;28;20246;-63
2022/10/22 08:51:39;;;;;;;14.80;13.60;;;;;;;12.81;100.00;97133.16;5002343;28;20231;-62
2022/10/22 08:54:17;;;;;;;14.10;12.90;;;;;;;12.87;100.00;97135.81;4988471;28;20830;-64
2022/10/22 08:56:49;;;;;;;13.80;12.40;;;;;;;12.92;100.00;97140.53;5015579;28;20252;-63
2022/10/22 08:59:21;;;;;;;12.63;11.50;;;;;;;12.73;100.00;97129.66;5011545;28;20210;-64
2022/10/22 09:01:51;;;;;;;12.73;11.67;;;;;;;12.84;100.00;97128.22;4972174;28;20218;-63
2022/10/22 09:04:24;;;;;;;12.87;11.40;;;;;;;12.78;100.00;97129.03;5010866;28;20203;-64
2022/10/22 09:06:54;;;;;;;11.50;10.60;;;;;;;12.88;100.00;97128.66;4987541;28;20230;-63
2022/10/22 09:09:25;;;;;;;10.90;10.00;;;;;;;13.07;100.00;97126.25;4957036;28;20413;-64
2022/10/22 09:11:54;;;;;;;11.07;10.17;;;;;;;13.22;100.00;97124.25;4974881;28;21451;-63
2022/10/22 09:14:24;;;;;;;10.70;9.80;;;;;;;13.16;100.00;97123.19;5020016;28;20217;-62
2022/10/22 09:17:12;;;;;;;10.63;9.63;;;;;;;13.38;100.00;97119.53;4951919;28;20800;-62
2022/10/22 09:19:49;;;;;;;10.27;8.40;;;;;;;13.41;100.00;97133.28;5011134;28;22129;-61
2022/10/22 09:22:25;;;;;;;9.27;8.50;;;;;;;13.78;100.00;97135.56;4992138;28;20210;-63
2022/10/22 09:24:58;;;;;;;8.07;7.30;;;;;;;13.60;100.00;97134.34;4984770;28;20310;-64
2022/10/22 09:27:28;;;;;;;8.27;7.57;;;;;;;13.63;100.00;97134.94;5015397;28;20222;-63
2022/10/22 09:29:56;;;;;;;7.90;7.20;;;;;;;13.70;100.00;97143.75;5016021;28;20214;-63
2022/10/22 09:32:26;;;;;;;7.90;7.10;;;;;;;13.42;100.00;97142.06;4963408;28;21376;-64
2022/10/22 09:34:57;;;;;;;7.20;6.70;;;;;;;13.33;100.00;97146.78;4963274;28;20213;-63
2022/10/22 09:37:29;;;;;;;6.70;6.10;;;;;;;13.32;100.00;97153.13;4994066;28;20340;-61
2022/10/22 09:39:58;;;;;;;6.80;6.30;;;;;;;13.32;100.00;97151.28;4984563;28;20211;-63
2022/10/22 09:42:27;;;;;;;7.30;5.87;;;;;;;13.29;100.00;97162.31;5018644;28;20390;-63
2022/10/22 09:44:57;;;;;;;5.57;5.17;;;;;;;13.30;100.00;97160.50;5011137;28;21454;-63
2022/10/22 09:47:33;;;;;;;6.50;6.00;;;;;;;13.27;100.00;97167.03;4965957;28;20665;-63
2022/10/22 09:50:27;;;;;;;6.00;5.37;;;;;;;13.56;100.00;97159.72;5014713;28;20242;-63
2022/10/22 09:53:01;;;;;;;4.60;4.30;;;;;;;13.80;100.00;97170.78;4984959;28;20747;-62
2022/10/22 09:55:30;;;;;;;4.87;4.47;;;;;;;13.81;100.00;97167.09;5010799;28;20715;-64
2022/10/22 09:58:00;;;;;;;4.27;3.90;;;;;;;13.97;100.00;97160.53;5011680;28;20329;-62
2022/10/22 10:00:29;;;;;;;4.50;4.13;;;;;;;14.08;100.00;97161.75;5015400;28;20207;-63
2022/10/22 10:02:59;;;;;;;5.07;3.50;;;;;;;13.82;100.00;97155.41;4959964;28;22073;-63
2022/10/22 10:05:30;;;;;;;4.13;3.80;;;;;;;13.58;100.00;97164.84;5006849;28;20299;-64
2022/10/22 10:08:05;;;;;;;4.13;3.40;;;;;;;13.84;100.00;97172.03;4982770;28;20265;-63
2022/10/22 10:10:39;;;;;;;3.43;3.23;;;;;;;13.83;100.00;97167.75;4987982;28;20469;-62
2022/10/22 10:13:20;;;;;;;3.47;3.23;;;;;;;14.07;100.00;97172.63;5014251;28;20669;-65
2022/10/22 10:15:54;;;;;;;3.67;3.47;;;;;;;14.15;100.00;97164.41;5010768;28;20279;-62
2022/10/22 10:18:32;;;;;;;3.20;3.00;;;;;;;14.34;100.00;97160.09;4989636;28;20533;-66
2022/10/22 10:21:06;;;;;;;4.43;3.50;;;;;;;14.22;100.00;97175.06;4977558;28;20342;-64
2022/10/22 10:23:43;;;;;;;3.50;3.30;;;;;;;14.40;100.00;97169.09;5008810;28;20198;-63
2022/10/22 10:26:15;;;;;;;3.27;3.07;;;;;;;14.76;100.00;97165.94;5011460;28;20312;-63
2022/10/22 10:28:57;;;;;;;4.83;3.10;;;;;;;14.61;100.00;97173.34;5012879;28;20211;-63
2022/10/22 10:31:36;;;;;;;4.47;3.20;;;;;;;15.03;100.00;97171.16;4987781;28;20323;-63
2022/10/22 10:34:12;;;;;;;3.30;3.10;;;;;;;15.10;100.00;97168.44;5015446;28;20206;-62
2022/10/22 10:36:46;;;;;;;2.70;2.60;;;;;;;15.82;100.00;97156.69;4963987;28;20234;-63
2022/10/22 10:39:22;;;;;;;3.23;3.03;;;;;;;15.85;100.00;97158.91;5014912;28;20222;-63
2022/10/22 10:41:56;;;;;;;2.20;2.10;;;;;;;15.54;100.00;97152.56;4952666;28;21957;-63
2022/10/22 10:44:46;;;;;;;2.10;2.03;;;;;;;16.05;100.00;97153.41;5008081;28;20203;-62
2022/10/22 10:47:26;;;;;;;2.23;2.13;;;;;;;16.27;100.00;97150.31;5017305;28;20219;-62
2022/10/22 10:50:00;;;;;;;1.97;1.87;;;;;;;16.44;100.00;97133.69;4932823;28;20430;-63
2022/10/22 10:52:34;;;;;;;2.23;2.13;;;;;;;16.87;100.00;97121.25;5014873;28;20306;-64
2022/10/22 10:55:13;;;;;;;2.47;2.37;;;;;;;16.42;100.00;97123.22;4965414;28;20676;-63
2022/10/22 10:57:49;;;;;;;2.43;2.07;;;;;;;16.62;100.00;97128.31;5013840;28;20226;-63
2022/10/22 11:00:19;;;;;;;1.53;1.50;;;;;;;16.73;100.00;97124.09;4985763;28;20273;-63
2022/10/22 11:03:28;;;;;;;1.60;1.50;;;;;;;16.69;100.00;97116.75;5014288;28;20400;-64
2022/10/22 11:05:58;;;;;;;1.70;1.63;;;;;;;16.98;100.00;97111.66;4964037;28;21163;-62
2022/10/22 11:08:29;;;;;;;1.67;1.50;;;;;;;16.57;100.00;97119.38;5013391;28;20310;-62
2022/10/22 11:11:01;;;;;;;1.40;1.40;;;;;;;16.17;100.00;97124.13;4956514;28;20793;-60
2022/10/22 11:13:33;;;;;;;2.10;1.40;;;;;;;16.04;100.00;97125.06;5015923;28;20328;-63
2022/10/22 11:16:05;;;;;;;1.53;1.43;;;;;;;15.89;100.00;97128.06;5013794;28;20253;-62
2022/10/22 11:18:37;;;;;;;1.70;1.57;;;;;;;15.69;100.00;97120.19;5015117;28;20771;-61
2022/10/22 11:21:14;;;;;;;2.77;1.37;;;;;;;16.05;100.00;97124.03;4995640;28;20848;-63
2022/10/22 11:23:45;;;;;;;3.60;1.27;;;;;;;16.49;100.00;97129.31;4963572;28;20206;-63
2022/10/22 11:26:20;;;;;;;1.70;1.60;;;;;;;16.74;98.15;97125.72;4987230;28;20219;-63
2022/10/22 11:28:52;;;;;;;1.33;1.23;;;;;;;17.32;95.96;97120.88;5010607;28;20241;-65
2022/10/22 11:31:25;;;;;;;1.50;1.40;;;;;;;17.25;90.80;97117.47;5013351;28;20590;-63